Time;durP1;ratioP1;P1;durP2;ratioP2;P2;SDS_P1;SDS_P2;PMS_P1;PMS_P2;Temp;Humidity;BMP_temperature;BMP_pressure;BME280_temperature;BME280_humidity;BME280_pressure;Samples;Min_cycle;Max_cycle;Signal;HPM_P1;HPM_P2
2022/10/15 00:01:14;;;;;;;25.60;18.43;;;13.20;99.90;;;;;;5060959;28;20450;-83
2022/10/15 00:03:42;;;;;;;23.60;18.27;;;13.20;99.90;;;;;;5061017;28;20454;-83
2022/10/15 00:06:11;;;;;;;29.20;20.47;;;13.10;99.90;;;;;;5060637;28;20940;-83
2022/10/15 00:08:38;;;;;;;25.60;18.57;;;13.00;99.90;;;;;;5061076;28;20481;-83
2022/10/15 00:11:07;;;;;;;25.70;19.23;;;13.00;99.90;;;;;;5060992;28;20794;-83
2022/10/15 00:13:35;;;;;;;25.37;18.53;;;12.90;99.90;;;;;;5060672;28;20520;-83
2022/10/15 00:16:02;;;;;;;25.97;20.53;;;12.90;99.90;;;;;;5060372;28;20417;-83
2022/10/15 00:18:29;;;;;;;28.43;19.10;;;12.90;99.90;;;;;;5060742;28;20438;-83
2022/10/15 00:20:55;;;;;;;29.20;20.80;;;12.90;99.90;;;;;;5061575;28;20445;-84
2022/10/15 00:23:22;;;;;;;31.03;20.57;;;12.90;99.90;;;;;;5062956;28;20471;-85
2022/10/15 00:25:49;;;;;;;28.27;20.10;;;12.90;99.90;;;;;;5076255;28;20446;-83
2022/10/15 00:28:17;;;;;;;28.77;20.37;;;12.80;99.90;;;;;;5075479;28;20452;-83
2022/10/15 00:30:45;;;;;;;32.37;22.63;;;12.80;99.90;;;;;;5072854;28;20442;-84
2022/10/15 00:33:12;;;;;;;28.53;20.67;;;12.50;99.90;;;;;;5075516;28;20477;-83
2022/10/15 00:35:38;;;;;;;32.30;22.63;;;14.00;99.90;;;;;;5074223;28;20454;-83
2022/10/15 00:38:05;;;;;;;31.13;21.10;;;12.80;99.90;;;;;;5064290;28;20446;-84
2022/10/15 00:40:31;;;;;;;24.40;20.77;;;12.80;99.90;;;;;;5063273;28;20452;-84
2022/10/15 00:42:58;;;;;;;31.30;21.10;;;12.80;99.90;;;;;;5060194;28;20500;-84
2022/10/15 00:45:25;;;;;;;31.47;21.50;;;12.50;99.90;;;;;;5061613;28;20420;-83
2022/10/15 00:47:53;;;;;;;32.77;22.53;;;12.80;99.90;;;;;;5062933;28;20481;-84
2022/10/15 00:50:23;;;;;;;29.57;21.53;;;12.80;99.90;;;;;;5062468;28;20489;-84
2022/10/15 00:53:00;;;;;;;29.37;21.20;;;12.80;99.90;;;;;;5063415;28;20465;-84
2022/10/15 00:55:30;;;;;;;31.97;22.53;;;12.80;99.90;;;;;;5066412;28;20460;-83
2022/10/15 00:58:01;;;;;;;28.33;19.27;;;12.80;99.90;;;;;;5066838;28;20442;-84
2022/10/15 01:00:28;;;;;;;28.23;20.90;;;12.80;99.90;;;;;;5063000;28;20537;-83
2022/10/15 01:02:56;;;;;;;34.67;22.43;;;12.80;99.90;;;;;;5061684;28;20436;-83
2022/10/15 01:05:24;;;;;;;31.20;21.00;;;12.90;99.90;;;;;;5063440;28;20416;-84
2022/10/15 01:07:50;;;;;;;26.27;19.57;;;12.80;99.90;;;;;;5061547;28;20535;-83
2022/10/15 01:10:19;;;;;;;29.60;19.87;;;12.90;99.90;;;;;;5061384;28;20450;-82
2022/10/15 01:12:57;;;;;;;28.03;22.17;;;13.80;99.90;;;;;;5061147;28;20543;-83
2022/10/15 01:15:29;;;;;;;29.93;19.17;;;12.90;99.90;;;;;;5059844;28;20445;-83
2022/10/15 01:18:02;;;;;;;35.33;22.23;;;12.90;99.90;;;;;;5059738;28;20896;-83
2022/10/15 01:20:53;;;;;;;28.60;20.97;;;12.90;99.90;;;;;;5059483;28;20434;-84
2022/10/15 01:23:52;;;;;;;28.67;19.93;;;12.90;99.90;;;;;;5059478;28;20472;-83
2022/10/15 01:26:47;;;;;;;31.90;18.97;;;12.60;99.90;;;;;;5059283;28;20472;-83
2022/10/15 01:29:22;;;;;;;30.40;20.30;;;12.90;99.90;;;;;;5060793;28;20470;-83
2022/10/15 01:32:00;;;;;;;28.03;20.30;;;12.60;99.90;;;;;;5085419;22;20492;-84
2022/10/15 01:34:37;;;;;;;25.30;19.30;;;12.90;99.90;;;;;;5077824;28;20429;-84
2022/10/15 01:37:09;;;;;;;29.67;19.43;;;12.90;99.90;;;;;;5078149;28;20478;-84
2022/10/15 01:39:41;;;;;;;26.40;19.07;;;12.90;99.90;;;;;;5080133;28;20931;-83
2022/10/15 01:42:15;;;;;;;25.90;19.50;;;13.00;99.90;;;;;;5095406;28;20495;-82
2022/10/15 01:44:46;;;;;;;27.70;19.10;;;13.00;99.90;;;;;;5095034;28;20481;-82
2022/10/15 01:47:19;;;;;;;32.93;19.63;;;12.90;99.90;;;;;;5090331;28;20444;-84
2022/10/15 01:49:47;;;;;;;26.53;18.37;;;12.90;99.90;;;;;;5078228;28;20469;-84
2022/10/15 01:52:18;;;;;;;27.30;20.40;;;12.90;99.90;;;;;;5084733;28;20449;-83
2022/10/15 01:54:47;;;;;;;31.00;20.87;;;12.90;99.90;;;;;;5098800;28;20384;-80
2022/10/15 01:57:14;;;;;;;34.93;20.60;;;12.90;99.90;;;;;;5098830;28;20455;-80
2022/10/15 01:59:43;;;;;;;25.67;18.43;;;12.90;99.90;;;;;;5098824;28;20407;-79
2022/10/15 02:02:10;;;;;;;29.07;20.40;;;12.90;99.90;;;;;;5098543;28;20789;-79
2022/10/15 02:04:38;;;;;;;33.83;22.20;;;12.90;99.90;;;;;;5098608;28;20412;-81
2022/10/15 02:07:08;;;;;;;26.77;19.37;;;13.00;99.90;;;;;;5098290;28;20429;-80
2022/10/15 02:09:45;;;;;;;28.03;20.43;;;12.90;99.90;;;;;;5098145;28;20476;-82
2022/10/15 02:12:28;;;;;;;29.07;20.60;;;13.00;99.90;;;;;;5093217;28;20500;-83
2022/10/15 02:15:00;;;;;;;27.90;19.40;;;13.00;99.90;;;;;;5083142;28;20432;-83
2022/10/15 02:17:34;;;;;;;29.87;19.63;;;13.00;99.90;;;;;;5080829;28;20502;-82
2022/10/15 02:20:09;;;;;;;30.50;21.07;;;13.00;99.90;;;;;;5078501;28;20490;-82
2022/10/15 02:22:41;;;;;;;28.40;20.23;;;13.00;99.90;;;;;;5078897;28;20521;-82
2022/10/15 02:25:15;;;;;;;25.70;18.50;;;13.00;99.90;;;;;;5080973;28;20425;-83
2022/10/15 02:27:42;;;;;;;32.73;20.17;;;12.90;99.90;;;;;;5080793;28;20782;-83
2022/10/15 02:30:10;;;;;;;24.37;18.70;;;12.90;99.90;;;;;;5081151;28;20488;-84
2022/10/15 02:32:39;;;;;;;28.40;20.73;;;12.70;99.90;;;;;;5081043;28;20484;-84
2022/10/15 02:35:10;;;;;;;29.77;20.73;;;12.90;99.90;;;;;;5081209;28;20444;-83
2022/10/15 02:37:39;;;;;;;33.90;20.60;;;12.90;99.90;;;;;;5080877;28;20415;-83
2022/10/15 02:40:07;;;;;;;24.47;19.17;;;13.00;99.90;;;;;;5096064;28;20440;-81
2022/10/15 02:42:33;;;;;;;29.40;20.87;;;12.90;99.90;;;;;;5101434;28;20456;-81
2022/10/15 02:45:00;;;;;;;26.10;20.17;;;13.00;99.90;;;;;;5099745;28;20432;-83
2022/10/15 02:47:27;;;;;;;26.93;19.87;;;12.90;99.90;;;;;;5082876;28;20437;-83
2022/10/15 02:49:53;;;;;;;29.57;19.53;;;13.00;99.90;;;;;;5081770;28;20580;-83
2022/10/15 02:52:21;;;;;;;30.37;20.97;;;13.00;99.90;;;;;;5080762;28;20472;-83
2022/10/15 02:54:48;;;;;;;29.07;22.07;;;13.00;99.90;;;;;;5080427;28;20448;-84
2022/10/15 02:57:15;;;;;;;25.77;21.00;;;13.20;99.90;;;;;;5080338;28;20445;-83
2022/10/15 02:59:42;;;;;;;27.77;21.10;;;13.00;99.90;;;;;;5080653;28;20799;-84
2022/10/15 03:02:08;;;;;;;28.17;19.70;;;13.00;99.90;;;;;;5090106;28;20466;-82
2022/10/15 03:04:35;;;;;;;23.23;18.93;;;12.90;99.90;;;;;;5097106;28;20441;-82
2022/10/15 03:07:01;;;;;;;28.53;19.90;;;13.00;99.90;;;;;;5091979;28;20437;-83
2022/10/15 03:09:29;;;;;;;26.93;20.73;;;13.00;99.90;;;;;;5081184;28;20483;-83
2022/10/15 03:11:56;;;;;;;30.77;18.87;;;13.00;99.90;;;;;;5080497;28;20436;-83
2022/10/15 03:14:23;;;;;;;26.87;20.70;;;13.00;99.90;;;;;;5080358;28;20444;-83
2022/10/15 03:16:49;;;;;;;27.00;19.50;;;13.00;99.90;;;;;;5080065;28;20420;-84
2022/10/15 03:19:16;;;;;;;33.10;20.47;;;13.00;99.90;;;;;;5081752;28;20440;-83
2022/10/15 03:21:43;;;;;;;24.27;18.67;;;12.70;99.90;;;;;;5096298;28;20399;-82
2022/10/15 03:24:10;;;;;;;27.30;19.47;;;13.00;99.90;;;;;;5098530;28;20451;-82
2022/10/15 03:26:38;;;;;;;27.60;19.47;;;13.00;99.90;;;;;;5095258;28;20440;-83
2022/10/15 03:29:04;;;;;;;26.97;19.67;;;13.00;99.90;;;;;;5081450;28;20484;-83
2022/10/15 03:31:31;;;;;;;28.80;21.07;;;13.00;99.90;;;;;;5081570;28;20939;-83
2022/10/15 03:33:58;;;;;;;24.00;17.50;;;12.90;99.90;;;;;;5081062;28;20457;-84
2022/10/15 03:36:24;;;;;;;28.90;21.37;;;12.80;99.90;;;;;;5080958;28;20471;-84
2022/10/15 03:38:51;;;;;;;29.17;20.80;;;12.40;99.90;;;;;;5080834;28;20444;-83
2022/10/15 03:41:18;;;;;;;26.20;18.63;;;12.80;99.90;;;;;;5081357;28;20449;-83
2022/10/15 03:43:46;;;;;;;25.33;19.67;;;12.80;99.90;;;;;;5080369;28;20473;-84
2022/10/15 03:46:12;;;;;;;29.17;19.73;;;12.70;99.90;;;;;;5079723;28;20441;-84
2022/10/15 03:48:39;;;;;;;23.70;20.40;;;12.70;99.90;;;;;;5080092;28;20487;-83
2022/10/15 03:51:06;;;;;;;26.93;20.90;;;12.70;99.90;;;;;;5079818;28;20457;-85
2022/10/15 03:53:32;;;;;;;26.70;18.47;;;12.70;99.90;;;;;;5080003;28;20491;-84
2022/10/15 03:56:03;;;;;;;28.47;20.50;;;12.70;99.90;;;;;;5079784;28;20448;-84
2022/10/15 03:58:30;;;;;;;29.67;21.40;;;12.70;99.90;;;;;;5079156;28;20840;-84
2022/10/15 04:00:58;;;;;;;25.60;19.70;;;12.80;99.90;;;;;;5079358;28;20501;-84
2022/10/15 04:03:25;;;;;;;29.23;20.00;;;12.90;99.90;;;;;;5079278;28;20468;-84
2022/10/15 04:05:52;;;;;;;29.67;20.60;;;12.80;99.90;;;;;;5079127;28;20445;-83
2022/10/15 04:08:18;;;;;;;29.70;22.00;;;12.80;99.90;;;;;;5077890;28;20862;-83
2022/10/15 04:10:46;;;;;;;28.00;19.67;;;12.80;99.90;;;;;;5075907;28;20445;-83
2022/10/15 04:13:12;;;;;;;32.50;22.17;;;12.80;99.90;;;;;;5075787;28;20469;-83
2022/10/15 04:15:39;;;;;;;31.53;21.00;;;12.80;99.90;;;;;;5076688;28;20453;-83
2022/10/15 04:18:07;;;;;;;31.53;20.77;;;12.80;99.90;;;;;;5077408;28;20445;-82
2022/10/15 04:20:34;;;;;;;29.67;20.80;;;12.80;99.90;;;;;;5081206;28;20909;-84
2022/10/15 04:23:01;;;;;;;25.43;19.87;;;12.70;99.90;;;;;;5095993;28;20540;-82
2022/10/15 04:25:27;;;;;;;27.43;20.73;;;12.70;99.90;;;;;;5091848;28;20445;-84
2022/10/15 04:27:54;;;;;;;28.53;20.67;;;12.70;99.90;;;;;;5078747;28;20448;-84
2022/10/15 04:30:21;;;;;;;26.50;20.70;;;12.60;99.90;;;;;;5081231;28;20484;-83
2022/10/15 04:32:47;;;;;;;32.00;21.53;;;12.60;99.90;;;;;;5086426;28;20481;-82
2022/10/15 04:35:15;;;;;;;30.13;20.97;;;12.60;99.90;;;;;;5099190;28;20453;-81
2022/10/15 04:37:42;;;;;;;28.27;21.00;;;12.60;99.90;;;;;;5095574;28;20453;-83
2022/10/15 04:40:10;;;;;;;25.00;18.73;;;12.60;99.90;;;;;;5087077;28;20445;-83
2022/10/15 04:42:37;;;;;;;25.63;19.03;;;12.60;99.90;;;;;;5079842;28;20471;-83
2022/10/15 04:45:05;;;;;;;26.00;19.30;;;12.60;99.90;;;;;;5079243;28;20946;-82
2022/10/15 04:47:32;;;;;;;28.53;20.33;;;12.60;99.90;;;;;;5079252;28;20503;-82
2022/10/15 04:49:59;;;;;;;26.43;20.73;;;12.60;99.90;;;;;;5079154;28;20492;-84
2022/10/15 04:52:27;;;;;;;28.93;19.03;;;12.60;99.90;;;;;;5078588;28;20468;-84
2022/10/15 04:54:53;;;;;;;24.37;19.33;;;12.70;99.90;;;;;;5077898;28;20434;-83
2022/10/15 04:57:20;;;;;;;26.27;19.50;;;12.70;99.90;;;;;;5078226;28;20498;-84
2022/10/15 04:59:47;;;;;;;26.27;21.30;;;12.70;99.90;;;;;;5077758;28;20420;-84
2022/10/15 05:02:13;;;;;;;26.00;19.27;;;12.70;99.90;;;;;;5078200;28;20461;-84
2022/10/15 05:04:40;;;;;;;28.73;18.97;;;12.70;99.90;;;;;;5079052;28;20471;-84
2022/10/15 05:07:07;;;;;;;24.10;18.37;;;12.70;99.90;;;;;;5085292;28;20436;-83
2022/10/15 05:09:35;;;;;;;23.90;17.50;;;12.80;99.90;;;;;;5077275;28;20487;-83
2022/10/15 05:12:01;;;;;;;25.30;18.77;;;12.80;99.90;;;;;;5083000;28;20464;-83
2022/10/15 05:14:28;;;;;;;24.50;18.20;;;12.80;99.90;;;;;;5097418;28;20475;-83
2022/10/15 05:16:55;;;;;;;24.83;19.63;;;12.80;99.90;;;;;;5085029;28;20472;-84
2022/10/15 05:19:22;;;;;;;23.67;17.27;;;12.90;99.90;;;;;;5083111;28;20483;-84
2022/10/15 05:21:48;;;;;;;24.80;18.57;;;12.80;99.90;;;;;;5079233;28;20427;-84
2022/10/15 05:24:15;;;;;;;28.47;20.97;;;12.90;99.90;;;;;;5079084;28;20427;-84
2022/10/15 05:26:43;;;;;;;28.53;19.23;;;12.90;99.90;;;;;;5087518;28;20433;-85
2022/10/15 05:29:10;;;;;;;24.77;17.10;;;12.90;99.90;;;;;;5079307;28;20530;-84
2022/10/15 05:31:36;;;;;;;25.10;18.00;;;12.80;99.90;;;;;;5077444;28;20448;-84
2022/10/15 05:34:07;;;;;;;24.60;18.00;;;12.90;99.90;;;;;;5077351;28;20425;-84
2022/10/15 05:36:33;;;;;;;21.83;16.90;;;13.00;99.90;;;;;;5078071;28;20437;-84
2022/10/15 05:39:02;;;;;;;26.37;18.10;;;13.00;99.90;;;;;;5079248;28;20444;-82
2022/10/15 05:41:30;;;;;;;24.33;18.23;;;13.00;99.90;;;;;;5095128;28;20436;-82
2022/10/15 05:43:59;;;;;;;20.10;17.10;;;13.00;99.90;;;;;;5094044;28;20416;-84
2022/10/15 05:46:26;;;;;;;25.10;18.17;;;13.00;99.90;;;;;;5094334;28;20445;-84
2022/10/15 05:48:55;;;;;;;22.37;16.90;;;13.00;99.90;;;;;;5097250;28;20475;-83
2022/10/15 05:51:22;;;;;;;19.43;15.33;;;13.00;99.90;;;;;;5095311;28;20443;-83
2022/10/15 05:53:52;;;;;;;23.60;17.13;;;13.00;99.90;;;;;;5083235;28;20439;-83
2022/10/15 05:56:19;;;;;;;22.23;16.63;;;;;;;;;;5083199;28;20855;-82
2022/10/15 05:58:45;;;;;;;21.70;16.80;;;13.00;99.90;;;;;;5082029;28;20437;-83
2022/10/15 06:01:14;;;;;;;24.87;18.90;;;13.10;99.90;;;;;;5082524;28;20437;-83
2022/10/15 06:03:42;;;;;;;21.10;16.53;;;13.10;99.90;;;;;;5081582;28;20518;-83
2022/10/15 06:06:16;;;;;;;20.63;17.33;;;13.10;99.90;;;;;;5081414;28;20455;-83
2022/10/15 06:08:43;;;;;;;23.50;15.60;;;13.10;99.90;;;;;;5081960;28;20864;-83
2022/10/15 06:11:09;;;;;;;25.43;17.40;;;13.10;99.90;;;;;;5081157;28;20480;-84
2022/10/15 06:13:38;;;;;;;22.80;16.83;;;13.10;99.90;;;;;;5081995;28;20881;-83
2022/10/15 06:16:05;;;;;;;21.03;15.23;;;13.00;99.90;;;;;;5082304;28;20471;-84
2022/10/15 06:18:33;;;;;;;18.73;15.50;;;13.10;99.90;;;;;;5082553;28;20815;-84
2022/10/15 06:21:01;;;;;;;20.83;16.60;;;13.10;99.90;;;;;;5082354;28;20463;-84
2022/10/15 06:23:27;;;;;;;20.07;16.73;;;13.50;99.90;;;;;;5082144;28;20473;-83
2022/10/15 06:25:54;;;;;;;25.53;16.20;;;13.20;99.90;;;;;;5081673;28;20448;-84
2022/10/15 06:28:21;;;;;;;26.63;17.70;;;13.10;99.90;;;;;;5081594;28;20476;-83
2022/10/15 06:30:48;;;;;;;22.80;15.87;;;13.10;99.90;;;;;;5081031;28;20852;-84
2022/10/15 06:33:15;;;;;;;23.27;16.77;;;13.10;99.90;;;;;;5081489;28;20881;-83
2022/10/15 06:35:44;;;;;;;21.30;17.07;;;13.10;99.90;;;;;;5082454;28;20449;-84
2022/10/15 06:38:12;;;;;;;20.30;14.53;;;13.20;99.90;;;;;;5083368;28;20441;-84
2022/10/15 06:40:39;;;;;;;19.33;15.20;;;13.20;99.90;;;;;;5084249;28;20947;-83
2022/10/15 06:43:07;;;;;;;18.67;16.00;;;13.20;99.90;;;;;;5085572;28;20439;-84
2022/10/15 06:45:35;;;;;;;26.10;16.37;;;13.20;99.90;;;;;;5086513;28;20482;-84
2022/10/15 06:48:03;;;;;;;20.57;15.60;;;13.30;99.90;;;;;;5084647;28;20461;-84
2022/10/15 06:50:29;;;;;;;18.60;15.03;;;13.30;99.90;;;;;;5087475;28;20897;-84
2022/10/15 06:52:58;;;;;;;22.97;15.47;;;13.30;99.90;;;;;;5086646;28;20472;-82
2022/10/15 06:55:24;;;;;;;18.30;13.83;;;13.30;99.90;;;;;;5087223;28;20499;-84
2022/10/15 06:57:51;;;;;;;20.97;15.50;;;13.30;99.90;;;;;;5100562;28;20448;-80
2022/10/15 07:00:18;;;;;;;21.73;14.40;;;13.30;99.90;;;;;;5101070;28;20433;-82
2022/10/15 07:02:45;;;;;;;17.93;14.77;;;13.40;99.90;;;;;;5097474;28;20469;-84
2022/10/15 07:05:11;;;;;;;16.00;13.97;;;13.40;99.90;;;;;;5089527;28;20475;-84
2022/10/15 07:07:38;;;;;;;21.93;16.63;;;13.40;99.90;;;;;;5090967;28;20444;-84
2022/10/15 07:10:07;;;;;;;16.80;14.13;;;13.40;99.90;;;;;;5086657;28;20533;-84
2022/10/15 07:12:34;;;;;;;21.63;16.37;;;;;;;;;;5088487;28;20473;-84
2022/10/15 07:15:01;;;;;;;17.83;14.87;;;13.50;99.90;;;;;;5085583;28;20498;-82
2022/10/15 07:17:29;;;;;;;17.47;14.60;;;13.60;99.90;;;;;;5089523;28;20441;-85
2022/10/15 07:19:56;;;;;;;18.23;15.37;;;13.70;99.90;;;;;;5087064;28;20445;-84
2022/10/15 07:22:22;;;;;;;17.80;14.67;;;13.80;99.90;;;;;;5080699;28;20519;-84
2022/10/15 07:24:49;;;;;;;17.70;13.50;;;13.80;99.90;;;;;;5080417;28;20453;-83
2022/10/15 07:27:17;;;;;;;16.00;14.30;;;13.80;99.90;;;;;;5087078;28;20448;-83
2022/10/15 07:29:44;;;;;;;17.93;14.07;;;13.90;99.90;;;;;;5087469;28;20484;-83
2022/10/15 07:32:11;;;;;;;14.63;13.07;;;13.70;99.90;;;;;;5111365;22;20480;-82
2022/10/15 07:34:37;;;;;;;17.73;12.40;;;13.90;99.90;;;;;;5088838;28;20420;-83
2022/10/15 07:37:04;;;;;;;16.30;13.63;;;13.90;99.90;;;;;;5088669;28;20445;-84
2022/10/15 07:39:31;;;;;;;18.90;13.90;;;13.90;99.90;;;;;;5086996;28;20445;-84
2022/10/15 07:41:57;;;;;;;15.23;13.57;;;14.00;99.90;;;;;;5085591;28;20419;-84
2022/10/15 07:44:26;;;;;;;14.90;12.60;;;14.00;99.90;;;;;;5087619;28;20437;-84
2022/10/15 07:46:53;;;;;;;18.40;13.70;;;;;;;;;;5095445;28;20862;-83
2022/10/15 07:49:19;;;;;;;18.63;13.13;;;14.00;99.90;;;;;;5100290;28;20456;-82
2022/10/15 07:51:46;;;;;;;17.10;12.13;;;14.10;99.90;;;;;;5100092;28;20527;-81
2022/10/15 07:54:13;;;;;;;14.03;11.60;;;;;;;;;;5090070;28;20457;-83
2022/10/15 07:56:40;;;;;;;16.97;12.70;;;;;;;;;;5081255;28;20448;-85
2022/10/15 07:59:08;;;;;;;14.47;12.10;;;14.30;99.90;;;;;;5081634;28;20528;-84
2022/10/15 08:01:36;;;;;;;14.67;12.10;;;14.40;99.90;;;;;;5083130;28;20513;-83
2022/10/15 08:04:03;;;;;;;17.03;13.10;;;14.40;99.90;;;;;;5087090;28;20461;-84
2022/10/15 08:06:31;;;;;;;12.97;11.63;;;14.60;99.90;;;;;;5098021;28;20445;-83
2022/10/15 08:08:58;;;;;;;14.77;12.30;;;14.60;99.90;;;;;;5097385;28;20441;-83
2022/10/15 08:11:24;;;;;;;14.20;12.23;;;14.60;99.90;;;;;;5098000;28;20467;-83
2022/10/15 08:13:52;;;;;;;13.20;11.80;;;14.70;99.90;;;;;;5091739;28;20469;-83
2022/10/15 08:16:19;;;;;;;14.83;11.63;;;14.70;99.90;;;;;;5093002;28;20441;-83
2022/10/15 08:18:47;;;;;;;15.47;12.00;;;14.70;99.90;;;;;;5094847;28;20437;-83
2022/10/15 08:21:14;;;;;;;15.00;11.97;;;14.80;99.90;;;;;;5089123;28;20441;-83
2022/10/15 08:23:41;;;;;;;15.03;10.73;;;15.30;99.90;;;;;;5087959;28;20465;-83
2022/10/15 08:26:08;;;;;;;16.03;12.80;;;15.80;99.90;;;;;;5085999;28;20445;-83
2022/10/15 08:28:36;;;;;;;14.20;10.43;;;15.10;99.90;;;;;;5086490;28;20461;-82
2022/10/15 08:31:03;;;;;;;12.60;11.20;;;;;;;;;;5085845;28;20842;-83
2022/10/15 08:33:30;;;;;;;13.87;11.50;;;;;;;;;;5087000;28;20450;-83
2022/10/15 08:35:59;;;;;;;11.60;10.50;;;;;;;;;;5092694;28;20437;-83
2022/10/15 08:38:26;;;;;;;11.00;9.90;;;;;;;;;;5094010;28;20436;-83
2022/10/15 08:40:55;;;;;;;13.43;10.77;;;15.60;99.90;;;;;;5085392;28;20467;-83
2022/10/15 08:43:25;;;;;;;10.43;9.37;;;15.70;99.90;;;;;;5085667;28;20565;-83
2022/10/15 08:45:56;;;;;;;12.53;11.23;;;15.40;99.90;;;;;;5085496;28;20433;-83
2022/10/15 08:48:29;;;;;;;9.87;8.87;;;15.80;99.90;;;;;;5084741;28;20433;-83
2022/10/15 08:51:02;;;;;;;10.87;9.23;;;15.90;99.90;;;;;;5085229;28;20465;-83
2022/10/15 08:53:32;;;;;;;12.50;9.43;;;16.00;99.90;;;;;;5083592;28;20464;-84
2022/10/15 08:56:05;;;;;;;10.17;9.17;;;16.10;99.90;;;;;;5087263;28;20433;-83
2022/10/15 08:58:44;;;;;;;10.17;9.17;;;16.20;99.90;;;;;;5091152;28;20433;-82
2022/10/15 09:01:17;;;;;;;11.00;9.90;;;16.20;99.90;;;;;;5085521;28;20425;-84
2022/10/15 09:03:53;;;;;;;9.60;8.53;;;16.40;99.90;;;;;;5084427;28;20990;-83
2022/10/15 09:06:25;;;;;;;10.70;9.50;;;16.70;99.90;;;;;;5082727;28;20455;-83
2022/10/15 09:08:59;;;;;;;12.07;9.00;;;16.30;99.90;;;;;;5083834;28;20433;-84
2022/10/15 09:11:36;;;;;;;8.23;6.87;;;16.60;99.90;;;;;;5082748;28;20469;-83
2022/10/15 09:14:05;;;;;;;11.30;10.10;;;16.70;99.90;;;;;;5096259;28;20489;-83
2022/10/15 09:16:37;;;;;;;12.20;9.27;;;16.00;99.90;;;;;;5097994;28;20435;-82
2022/10/15 09:19:10;;;;;;;8.63;7.73;;;16.90;99.90;;;;;;5092007;28;20425;-83
2022/10/15 09:21:38;;;;;;;9.17;7.73;;;17.20;99.90;;;;;;5089957;28;20448;-84
2022/10/15 09:24:06;;;;;;;10.93;8.33;;;16.90;99.90;;;;;;5087226;28;20465;-83
2022/10/15 09:26:49;;;;;;;9.03;7.43;;;16.80;99.90;;;;;;5086587;28;20456;-83
2022/10/15 09:29:23;;;;;;;9.43;8.43;;;16.70;99.90;;;;;;5085932;28;20429;-83
2022/10/15 09:31:58;;;;;;;10.00;9.00;;;16.50;99.90;;;;;;5085287;28;20473;-83
2022/10/15 09:34:29;;;;;;;10.10;8.13;;;17.10;99.90;;;;;;5083636;28;20926;-83
2022/10/15 09:37:02;;;;;;;11.37;8.47;;;16.80;99.90;;;;;;5082607;28;20436;-83
2022/10/15 09:39:44;;;;;;;10.53;8.27;;;16.90;99.90;;;;;;5082777;28;20895;-83
2022/10/15 09:42:21;;;;;;;10.27;8.13;;;16.90;99.90;;;;;;5078610;28;20424;-85
2022/10/15 09:44:49;;;;;;;10.50;8.97;;;17.50;99.90;;;;;;5075470;28;20432;-86
2022/10/15 09:47:22;;;;;;;10.30;9.13;;;17.50;99.90;;;;;;5075557;28;20441;-85
2022/10/15 09:49:49;;;;;;;10.33;9.30;;;17.70;99.90;;;;;;5076437;28;20432;-86
2022/10/15 09:52:25;;;;;;;9.27;8.37;;;17.60;99.90;;;;;;5074716;28;20492;-86
2022/10/15 09:55:00;;;;;;;8.40;7.70;;;18.40;99.90;;;;;;5080981;28;20783;-84
2022/10/15 09:57:27;;;;;;;9.50;8.53;;;17.20;99.90;;;;;;5075965;28;20425;-83
2022/10/15 09:59:55;;;;;;;9.70;8.70;;;16.90;99.90;;;;;;5075493;28;20452;-85
2022/10/15 10:02:24;;;;;;;8.90;8.10;;;17.70;99.90;;;;;;5056930;28;20461;-85
2022/10/15 10:04:51;;;;;;;7.80;7.03;;;;;;;;;;5077533;28;20451;-84
2022/10/15 10:07:31;;;;;;;8.70;7.80;;;17.70;99.90;;;;;;5078793;28;20449;-83
2022/10/15 10:10:01;;;;;;;8.60;7.80;;;17.70;99.90;;;;;;5077854;28;20776;-84
2022/10/15 10:12:30;;;;;;;7.83;7.03;;;17.80;99.90;;;;;;5076609;28;20511;-84
2022/10/15 10:14:59;;;;;;;8.03;7.33;;;17.70;99.90;;;;;;5075141;28;20449;-85
2022/10/15 10:17:27;;;;;;;8.90;7.70;;;17.70;99.90;;;;;;5076939;28;20480;-84
2022/10/15 10:20:17;;;;;;;10.33;8.50;;;17.80;99.90;;;;;;5082437;28;20445;-84
2022/10/15 10:22:46;;;;;;;8.77;7.90;;;17.80;99.90;;;;;;5075521;28;20465;-84
2022/10/15 10:25:32;;;;;;;9.10;7.53;;;17.80;99.90;;;;;;5077958;28;20429;-84
2022/10/15 10:28:04;;;;;;;7.77;7.07;;;17.90;99.90;;;;;;5076869;28;20440;-84
2022/10/15 10:30:34;;;;;;;7.87;6.60;;;17.90;99.90;;;;;;5078089;28;20444;-84
2022/10/15 10:33:01;;;;;;;8.00;7.20;;;17.90;99.90;;;;;;5079102;28;20484;-84
2022/10/15 10:35:35;;;;;;;7.70;7.00;;;17.70;99.90;;;;;;5078974;28;20452;-85
2022/10/15 10:38:03;;;;;;;7.93;6.97;;;17.70;99.90;;;;;;5089797;28;20481;-84
2022/10/15 10:40:34;;;;;;;8.97;7.27;;;17.80;99.90;;;;;;5094884;28;20437;-84
2022/10/15 10:43:11;;;;;;;7.43;6.40;;;17.60;99.90;;;;;;5092673;28;20467;-84
2022/10/15 10:45:38;;;;;;;8.63;7.60;;;17.60;99.90;;;;;;5091296;28;20432;-84
2022/10/15 10:48:19;;;;;;;7.97;7.17;;;17.70;99.90;;;;;;5093404;28;20450;-84
2022/10/15 10:50:46;;;;;;;8.37;7.57;;;17.80;99.90;;;;;;5092392;28;21033;-84
2022/10/15 10:53:25;;;;;;;11.13;7.73;;;18.00;99.90;;;;;;5091006;28;20460;-83
2022/10/15 10:55:54;;;;;;;11.80;7.57;;;18.00;99.90;;;;;;5095174;28;20457;-83
2022/10/15 10:58:24;;;;;;;8.70;7.80;;;18.10;99.90;;;;;;5092532;28;20435;-85
2022/10/15 11:00:52;;;;;;;8.33;7.50;;;18.10;99.90;;;;;;5086506;28;20467;-84
2022/10/15 11:03:31;;;;;;;7.90;7.10;;;18.20;99.90;;;;;;5080081;28;20472;-85
2022/10/15 11:06:09;;;;;;;8.40;7.60;;;18.10;99.90;;;;;;5081473;28;20495;-85
2022/10/15 11:08:45;;;;;;;10.93;8.63;;;18.00;99.90;;;;;;5086597;28;20429;-85
2022/10/15 11:11:18;;;;;;;8.80;7.90;;;18.10;99.90;;;;;;5097742;28;20464;-84
2022/10/15 11:13:56;;;;;;;14.80;8.23;;;18.10;99.90;;;;;;5098579;28;20451;-84
2022/10/15 11:16:33;;;;;;;8.27;7.03;;;18.20;99.90;;;;;;5090516;28;20436;-84
2022/10/15 11:19:20;;;;;;;8.73;7.83;;;17.70;99.90;;;;;;5085950;28;20460;-85
2022/10/15 11:21:59;;;;;;;8.80;7.20;;;18.40;99.90;;;;;;5090103;28;20413;-85
2022/10/15 11:24:35;;;;;;;8.00;7.20;;;18.10;99.90;;;;;;5095177;28;20429;-84
2022/10/15 11:27:19;;;;;;;8.87;8.17;;;18.20;99.90;;;;;;5082951;28;20435;-86
2022/10/15 11:29:54;;;;;;;7.50;6.73;;;18.00;99.90;;;;;;5080082;28;20429;-84
2022/10/15 11:32:41;;;;;;;8.20;7.40;;;18.20;99.90;;;;;;5081827;28;20491;-84
2022/10/15 11:35:27;;;;;;;8.63;7.80;;;18.60;99.90;;;;;;5079486;28;20479;-84
2022/10/15 11:38:05;;;;;;;10.17;6.77;;;18.30;99.90;;;;;;5079623;28;20425;-85
2022/10/15 11:40:43;;;;;;;7.33;6.57;;;18.30;99.90;;;;;;5078316;28;20424;-85
2022/10/15 11:43:24;;;;;;;7.30;5.83;;;18.30;99.90;;;;;;5078494;28;20460;-85
2022/10/15 11:46:01;;;;;;;6.40;5.60;;;18.30;99.90;;;;;;5079302;28;20482;-85
2022/10/15 11:48:37;;;;;;;7.50;6.80;;;18.40;99.90;;;;;;5079575;28;20421;-86
2022/10/15 11:51:12;;;;;;;5.63;5.23;;;18.30;99.90;;;;;;5080369;28;20499;-84
2022/10/15 11:54:01;;;;;;;6.13;5.63;;;18.30;99.90;;;;;;5080931;28;20460;-79
2022/10/15 11:56:34;;;;;;;19.37;13.80;;;18.20;99.90;;;;;;5078722;28;20429;-79
2022/10/15 11:59:10;;;;;;;38.57;25.57;;;18.10;99.90;;;;;;5078779;28;20430;-79
2022/10/15 12:01:42;;;;;;;17.03;12.77;;;18.10;99.90;;;;;;5081245;28;20441;-79
2022/10/15 12:04:14;;;;;;;5.97;5.33;;;17.60;99.90;;;;;;5081288;28;20502;-79
2022/10/15 12:06:47;;;;;;;12.20;10.53;;;18.00;99.90;;;;;;5079837;28;20428;-78
2022/10/15 12:09:19;;;;;;;12.17;9.20;;;17.80;99.90;;;;;;5079299;28;20433;-79
2022/10/15 12:11:53;;;;;;;8.77;7.87;;;18.20;99.90;;;;;;5077544;28;20468;-79
2022/10/15 12:14:28;;;;;;;6.30;5.80;;;18.10;99.90;;;;;;5078559;28;20482;-80
2022/10/15 12:17:04;;;;;;;5.50;5.03;;;18.20;99.90;;;;;;5079068;28;20440;-79
2022/10/15 12:19:38;;;;;;;6.53;5.90;;;18.30;99.90;;;;;;5078559;28;20433;-78
2022/10/15 12:22:10;;;;;;;6.90;6.30;;;17.90;99.90;;;;;;5078712;28;20437;-79
2022/10/15 12:24:52;;;;;;;8.53;6.43;;;18.30;99.90;;;;;;5079493;28;20437;-78
2022/10/15 12:27:34;;;;;;;5.93;5.07;;;18.30;99.90;;;;;;5078144;28;20459;-79
2022/10/15 12:30:22;;;;;;;7.83;6.53;;;18.30;99.90;;;;;;5078544;28;20482;-79
2022/10/15 12:32:49;;;;;;;6.37;5.77;;;;;;;;;;5077440;28;20571;-79
2022/10/15 12:35:31;;;;;;;6.17;5.60;;;18.20;99.90;;;;;;5074475;28;20441;-80
2022/10/15 12:38:10;;;;;;;4.90;4.50;;;18.30;99.90;;;;;;5075713;28;20915;-79
2022/10/15 12:40:39;;;;;;;5.70;5.20;;;18.10;99.90;;;;;;5077222;28;20443;-79
2022/10/15 12:43:13;;;;;;;8.67;5.67;;;18.00;99.90;;;;;;5084779;28;20460;-79
2022/10/15 12:45:48;;;;;;;5.83;5.33;;;17.90;99.90;;;;;;5090922;28;20494;-79
2022/10/15 12:48:30;;;;;;;7.17;5.80;;;18.20;99.90;;;;;;5085612;28;20499;-78
2022/10/15 12:51:30;;;;;;;7.63;5.73;;;18.20;99.90;;;;;;5079777;28;20810;-78